sensor_id;sensor_type;location;lat;lon;timestamp;temperature;humidity
4615;DHT22;2320;51.362;6.946;2022-07-22T00:00:52;17.40;99.90
4615;DHT22;2320;51.362;6.946;2022-07-22T00:03:18;17.50;99.90
4615;DHT22;2320;51.362;6.946;2022-07-22T00:05:43;17.60;99.90
4615;DHT22;2320;51.362;6.946;2022-07-22T00:08:09;17.70;99.90
4615;DHT22;2320;51.362;6.946;2022-07-22T00:10:34;17.50;99.90
4615;DHT22;2320;51.362;6.946;2022-07-22T00:13:00;17.60;99.90
4615;DHT22;2320;51.362;6.946;2022-07-22T00:15:25;17.60;99.90
4615;DHT22;2320;51.362;6.946;2022-07-22T00:17:51;17.60;99.90
4615;DHT22;2320;51.362;6.946;2022-07-22T00:20:16;17.50;99.90
4615;DHT22;2320;51.362;6.946;2022-07-22T00:22:42;17.40;99.90
4615;DHT22;2320;51.362;6.946;2022-07-22T00:25:07;17.30;99.90
4615;DHT22;2320;51.362;6.946;2022-07-22T00:27:33;17.40;99.90
4615;DHT22;2320;51.362;6.946;2022-07-22T00:29:58;17.40;99.90
4615;DHT22;2320;51.362;6.946;2022-07-22T00:32:24;17.40;99.90
4615;DHT22;2320;51.362;6.946;2022-07-22T00:34:49;17.40;99.90
4615;DHT22;2320;51.362;6.946;2022-07-22T00:37:15;17.40;99.90
4615;DHT22;2320;51.362;6.946;2022-07-22T00:39:40;17.40;99.90
4615;DHT22;2320;51.362;6.946;2022-07-22T00:42:06;17.50;99.90
4615;DHT22;2320;51.362;6.946;2022-07-22T00:44:31;17.60;99.90
4615;DHT22;2320;51.362;6.946;2022-07-22T00:46:57;17.40;99.90
4615;DHT22;2320;51.362;6.946;2022-07-22T00:49:22;17.40;99.90
4615;DHT22;2320;51.362;6.946;2022-07-22T00:51:49;17.50;99.90
4615;DHT22;2320;51.362;6.946;2022-07-22T00:54:15;17.60;99.90
4615;DHT22;2320;51.362;6.946;2022-07-22T00:56:40;17.50;99.90
4615;DHT22;2320;51.362;6.946;2022-07-22T00:59:07;17.40;99.90
4615;DHT22;2320;51.362;6.946;2022-07-22T01:01:33;17.50;99.90
4615;DHT22;2320;51.362;6.946;2022-07-22T01:03:59;17.30;99.90
4615;DHT22;2320;51.362;6.946;2022-07-22T01:06:24;17.30;99.90
4615;DHT22;2320;51.362;6.946;2022-07-22T01:08:50;17.50;99.90
4615;DHT22;2320;51.362;6.946;2022-07-22T01:11:18;17.50;99.90
4615;DHT22;2320;51.362;6.946;2022-07-22T01:13:44;17.40;99.90
4615;DHT22;2320;51.362;6.946;2022-07-22T01:16:11;17.40;99.90
4615;DHT22;2320;51.362;6.946;2022-07-22T01:18:37;17.30;99.90
4615;DHT22;2320;51.362;6.946;2022-07-22T01:21:03;17.30;99.90
4615;DHT22;2320;51.362;6.946;2022-07-22T01:23:29;17.30;99.90
4615;DHT22;2320;51.362;6.946;2022-07-22T01:25:54;17.40;99.90
4615;DHT22;2320;51.362;6.946;2022-07-22T01:28:20;17.30;99.90
4615;DHT22;2320;51.362;6.946;2022-07-22T01:30:45;17.30;99.90
4615;DHT22;2320;51.362;6.946;2022-07-22T01:33:11;17.30;99.90
4615;DHT22;2320;51.362;6.946;2022-07-22T01:35:36;17.30;99.90
4615;DHT22;2320;51.362;6.946;2022-07-22T01:38:02;17.20;99.90
4615;DHT22;2320;51.362;6.946;2022-07-22T01:40:28;17.20;99.90
4615;DHT22;2320;51.362;6.946;2022-07-22T01:42:53;17.20;99.90
4615;DHT22;2320;51.362;6.946;2022-07-22T01:45:19;17.20;99.90
4615;DHT22;2320;51.362;6.946;2022-07-22T01:47:44;17.30;99.90
4615;DHT22;2320;51.362;6.946;2022-07-22T01:50:10;17.20;99.90
4615;DHT22;2320;51.362;6.946;2022-07-22T01:52:37;17.10;99.90
4615;DHT22;2320;51.362;6.946;2022-07-22T01:55:03;17.20;99.90
4615;DHT22;2320;51.362;6.946;2022-07-22T01:57:29;17.20;99.90
4615;DHT22;2320;51.362;6.946;2022-07-22T01:59:54;17.20;99.90
4615;DHT22;2320;51.362;6.946;2022-07-22T02:02:20;17.30;99.90
4615;DHT22;2320;51.362;6.946;2022-07-22T02:04:45;17.30;99.90
4615;DHT22;2320;51.362;6.946;2022-07-22T02:07:10;17.30;99.90
4615;DHT22;2320;51.362;6.946;2022-07-22T02:09:36;17.20;99.90
4615;DHT22;2320;51.362;6.946;2022-07-22T02:12:01;17.10;99.90
4615;DHT22;2320;51.362;6.946;2022-07-22T02:14:27;17.10;99.90
4615;DHT22;2320;51.362;6.946;2022-07-22T02:16:52;17.20;99.90
4615;DHT22;2320;51.362;6.946;2022-07-22T02:19:18;17.20;99.90
4615;DHT22;2320;51.362;6.946;2022-07-22T02:21:43;17.10;99.90
4615;DHT22;2320;51.362;6.946;2022-07-22T02:24:09;17.00;99.90
4615;DHT22;2320;51.362;6.946;2022-07-22T02:26:34;17.00;99.90
4615;DHT22;2320;51.362;6.946;2022-07-22T02:29:00;17.10;99.90
4615;DHT22;2320;51.362;6.946;2022-07-22T02:31:25;17.20;99.90
4615;DHT22;2320;51.362;6.946;2022-07-22T02:33:51;17.10;99.90
4615;DHT22;2320;51.362;6.946;2022-07-22T02:36:16;17.10;99.90
4615;DHT22;2320;51.362;6.946;2022-07-22T02:38:42;17.10;99.90
4615;DHT22;2320;51.362;6.946;2022-07-22T02:41:08;17.20;99.90
4615;DHT22;2320;51.362;6.946;2022-07-22T02:43:33;17.10;99.90
4615;DHT22;2320;51.362;6.946;2022-07-22T02:45:59;17.00;99.90
4615;DHT22;2320;51.362;6.946;2022-07-22T02:48:24;17.00;99.90
4615;DHT22;2320;51.362;6.946;2022-07-22T02:50:50;17.10;99.90
4615;DHT22;2320;51.362;6.946;2022-07-22T02:53:15;17.10;99.90
4615;DHT22;2320;51.362;6.946;2022-07-22T02:55:41;17.10;99.90
4615;DHT22;2320;51.362;6.946;2022-07-22T02:58:07;17.00;99.90
4615;DHT22;2320;51.362;6.946;2022-07-22T03:00:33;17.10;99.90
4615;DHT22;2320;51.362;6.946;2022-07-22T03:02:59;17.00;99.90
4615;DHT22;2320;51.362;6.946;2022-07-22T03:05:24;16.90;99.90
4615;DHT22;2320;51.362;6.946;2022-07-22T03:07:50;17.00;99.90
4615;DHT22;2320;51.362;6.946;2022-07-22T03:10:15;16.90;99.90
4615;DHT22;2320;51.362;6.946;2022-07-22T03:12:41;16.80;99.90
4615;DHT22;2320;51.362;6.946;2022-07-22T03:15:06;16.90;99.90
4615;DHT22;2320;51.362;6.946;2022-07-22T03:17:35;16.90;99.90
4615;DHT22;2320;51.362;6.946;2022-07-22T03:20:08;16.90;99.90
4615;DHT22;2320;51.362;6.946;2022-07-22T03:22:34;16.80;99.90
4615;DHT22;2320;51.362;6.946;2022-07-22T03:25:00;16.80;99.90
4615;DHT22;2320;51.362;6.946;2022-07-22T03:27:25;16.90;99.90
4615;DHT22;2320;51.362;6.946;2022-07-22T03:29:51;16.80;99.90
4615;DHT22;2320;51.362;6.946;2022-07-22T03:32:16;16.70;99.90
4615;DHT22;2320;51.362;6.946;2022-07-22T03:34:42;16.60;99.90
4615;DHT22;2320;51.362;6.946;2022-07-22T03:37:07;16.50;99.90
4615;DHT22;2320;51.362;6.946;2022-07-22T03:39:33;16.60;99.90
4615;DHT22;2320;51.362;6.946;2022-07-22T03:41:58;16.60;99.90
4615;DHT22;2320;51.362;6.946;2022-07-22T03:44:24;16.60;99.90
4615;DHT22;2320;51.362;6.946;2022-07-22T03:46:50;16.60;99.90
4615;DHT22;2320;51.362;6.946;2022-07-22T03:49:15;16.60;99.90
4615;DHT22;2320;51.362;6.946;2022-07-22T03:51:41;16.60;99.90
4615;DHT22;2320;51.362;6.946;2022-07-22T03:54:06;16.60;99.90
4615;DHT22;2320;51.362;6.946;2022-07-22T03:56:32;16.50;99.90
4615;DHT22;2320;51.362;6.946;2022-07-22T03:58:58;16.60;99.90
4615;DHT22;2320;51.362;6.946;2022-07-22T04:01:23;16.50;99.90
4615;DHT22;2320;51.362;6.946;2022-07-22T04:03:49;16.60;99.90
4615;DHT22;2320;51.362;6.946;2022-07-22T04:06:14;16.60;99.90
4615;DHT22;2320;51.362;6.946;2022-07-22T04:08:40;16.50;99.90
4615;DHT22;2320;51.362;6.946;2022-07-22T04:11:05;16.50;99.90
4615;DHT22;2320;51.362;6.946;2022-07-22T04:13:31;16.50;99.90
4615;DHT22;2320;51.362;6.946;2022-07-22T04:15:56;16.50;99.90
4615;DHT22;2320;51.362;6.946;2022-07-22T04:18:22;16.50;99.90
4615;DHT22;2320;51.362;6.946;2022-07-22T04:20:47;16.40;99.90
4615;DHT22;2320;51.362;6.946;2022-07-22T04:23:13;16.40;99.90
4615;DHT22;2320;51.362;6.946;2022-07-22T04:25:38;16.30;99.90
4615;DHT22;2320;51.362;6.946;2022-07-22T04:28:04;16.30;99.90
4615;DHT22;2320;51.362;6.946;2022-07-22T04:30:30;16.30;99.90
4615;DHT22;2320;51.362;6.946;2022-07-22T04:32:55;16.30;99.90
4615;DHT22;2320;51.362;6.946;2022-07-22T04:35:20;16.40;99.90
4615;DHT22;2320;51.362;6.946;2022-07-22T04:37:46;16.50;99.90
4615;DHT22;2320;51.362;6.946;2022-07-22T04:40:11;16.50;99.90
4615;DHT22;2320;51.362;6.946;2022-07-22T04:42:37;16.30;99.90
4615;DHT22;2320;51.362;6.946;2022-07-22T04:45:03;16.20;99.90
4615;DHT22;2320;51.362;6.946;2022-07-22T04:47:29;16.30;99.90
4615;DHT22;2320;51.362;6.946;2022-07-22T04:49:54;16.40;99.90
4615;DHT22;2320;51.362;6.946;2022-07-22T04:52:20;16.50;99.90
4615;DHT22;2320;51.362;6.946;2022-07-22T04:54:45;16.50;99.90
4615;DHT22;2320;51.362;6.946;2022-07-22T04:57:11;16.50;99.90
4615;DHT22;2320;51.362;6.946;2022-07-22T04:59:36;16.50;99.90
4615;DHT22;2320;51.362;6.946;2022-07-22T05:02:02;16.60;99.90
4615;DHT22;2320;51.362;6.946;2022-07-22T05:04:28;16.70;99.90
4615;DHT22;2320;51.362;6.946;2022-07-22T05:06:54;16.60;99.90
4615;DHT22;2320;51.362;6.946;2022-07-22T05:09:19;16.70;99.90
4615;DHT22;2320;51.362;6.946;2022-07-22T05:11:45;16.70;99.90
4615;DHT22;2320;51.362;6.946;2022-07-22T05:14:10;16.80;99.90
4615;DHT22;2320;51.362;6.946;2022-07-22T05:16:36;16.80;99.90
4615;DHT22;2320;51.362;6.946;2022-07-22T05:19:03;16.80;99.90
4615;DHT22;2320;51.362;6.946;2022-07-22T05:21:28;16.80;99.90
4615;DHT22;2320;51.362;6.946;2022-07-22T05:23:54;16.80;99.90
4615;DHT22;2320;51.362;6.946;2022-07-22T05:26:19;16.80;99.90
4615;DHT22;2320;51.362;6.946;2022-07-22T05:28:45;16.80;99.90
4615;DHT22;2320;51.362;6.946;2022-07-22T05:31:10;16.90;99.90
4615;DHT22;2320;51.362;6.946;2022-07-22T05:33:36;17.00;99.90
4615;DHT22;2320;51.362;6.946;2022-07-22T05:36:01;16.90;99.90
4615;DHT22;2320;51.362;6.946;2022-07-22T05:38:27;17.00;99.90
4615;DHT22;2320;51.362;6.946;2022-07-22T05:40:53;17.10;99.90
4615;DHT22;2320;51.362;6.946;2022-07-22T05:43:18;17.10;99.90
4615;DHT22;2320;51.362;6.946;2022-07-22T05:45:44;17.10;99.90
4615;DHT22;2320;51.362;6.946;2022-07-22T05:48:09;17.00;99.90
4615;DHT22;2320;51.362;6.946;2022-07-22T05:50:35;16.90;99.90
4615;DHT22;2320;51.362;6.946;2022-07-22T05:53:01;16.90;99.90
4615;DHT22;2320;51.362;6.946;2022-07-22T05:55:26;17.00;99.90
4615;DHT22;2320;51.362;6.946;2022-07-22T05:57:52;16.80;99.90
4615;DHT22;2320;51.362;6.946;2022-07-22T06:00:17;16.80;99.90
4615;DHT22;2320;51.362;6.946;2022-07-22T06:02:43;16.80;99.90
4615;DHT22;2320;51.362;6.946;2022-07-22T06:05:08;17.00;99.90
4615;DHT22;2320;51.362;6.946;2022-07-22T06:07:34;17.20;99.90
4615;DHT22;2320;51.362;6.946;2022-07-22T06:09:59;17.10;99.90
4615;DHT22;2320;51.362;6.946;2022-07-22T06:12:25;17.20;99.90
4615;DHT22;2320;51.362;6.946;2022-07-22T06:14:50;17.30;99.90
4615;DHT22;2320;51.362;6.946;2022-07-22T06:17:15;17.10;99.90
4615;DHT22;2320;51.362;6.946;2022-07-22T06:19:41;17.20;99.90
4615;DHT22;2320;51.362;6.946;2022-07-22T06:22:06;17.30;99.90
4615;DHT22;2320;51.362;6.946;2022-07-22T06:24:32;17.30;99.90
4615;DHT22;2320;51.362;6.946;2022-07-22T06:26:57;17.30;99.90
4615;DHT22;2320;51.362;6.946;2022-07-22T06:29:23;17.20;99.90
4615;DHT22;2320;51.362;6.946;2022-07-22T06:31:49;17.20;99.90
4615;DHT22;2320;51.362;6.946;2022-07-22T06:34:14;17.20;99.90
4615;DHT22;2320;51.362;6.946;2022-07-22T06:36:40;17.30;99.90
4615;DHT22;2320;51.362;6.946;2022-07-22T06:39:05;17.70;99.90
4615;DHT22;2320;51.362;6.946;2022-07-22T06:41:31;17.80;99.90
4615;DHT22;2320;51.362;6.946;2022-07-22T06:43:56;17.80;99.90
4615;DHT22;2320;51.362;6.946;2022-07-22T06:46:22;17.70;99.90
4615;DHT22;2320;51.362;6.946;2022-07-22T06:48:47;17.80;99.90
4615;DHT22;2320;51.362;6.946;2022-07-22T06:51:12;17.80;99.90
4615;DHT22;2320;51.362;6.946;2022-07-22T06:53:38;17.70;99.90
4615;DHT22;2320;51.362;6.946;2022-07-22T06:56:03;17.50;99.90
4615;DHT22;2320;51.362;6.946;2022-07-22T06:58:29;17.60;99.90
4615;DHT22;2320;51.362;6.946;2022-07-22T07:00:55;17.60;99.90
4615;DHT22;2320;51.362;6.946;2022-07-22T07:03:20;17.60;99.90
4615;DHT22;2320;51.362;6.946;2022-07-22T07:05:47;17.70;99.90
4615;DHT22;2320;51.362;6.946;2022-07-22T07:08:12;17.60;99.90
4615;DHT22;2320;51.362;6.946;2022-07-22T07:10:37;17.60;99.90
4615;DHT22;2320;51.362;6.946;2022-07-22T07:13:03;17.70;99.90
4615;DHT22;2320;51.362;6.946;2022-07-22T07:15:28;17.80;99.90
4615;DHT22;2320;51.362;6.946;2022-07-22T07:17:55;17.70;99.90
4615;DHT22;2320;51.362;6.946;2022-07-22T07:20:21;17.60;99.90
4615;DHT22;2320;51.362;6.946;2022-07-22T07:22:47;18.00;99.90
4615;DHT22;2320;51.362;6.946;2022-07-22T07:25:13;18.30;99.90
4615;DHT22;2320;51.362;6.946;2022-07-22T07:27:38;18.30;99.90
4615;DHT22;2320;51.362;6.946;2022-07-22T07:30:04;18.40;99.90
4615;DHT22;2320;51.362;6.946;2022-07-22T07:32:30;18.30;99.90
4615;DHT22;2320;51.362;6.946;2022-07-22T07:34:55;18.40;99.90
4615;DHT22;2320;51.362;6.946;2022-07-22T07:37:21;18.50;99.90
4615;DHT22;2320;51.362;6.946;2022-07-22T07:39:46;18.20;99.90
4615;DHT22;2320;51.362;6.946;2022-07-22T07:42:12;17.90;99.90
4615;DHT22;2320;51.362;6.946;2022-07-22T07:44:37;17.90;99.90
4615;DHT22;2320;51.362;6.946;2022-07-22T07:47:03;18.20;99.90
4615;DHT22;2320;51.362;6.946;2022-07-22T07:49:28;17.90;99.90
4615;DHT22;2320;51.362;6.946;2022-07-22T07:51:54;17.90;99.90
4615;DHT22;2320;51.362;6.946;2022-07-22T07:54:19;18.10;99.90
4615;DHT22;2320;51.362;6.946;2022-07-22T07:56:45;17.90;99.90
4615;DHT22;2320;51.362;6.946;2022-07-22T07:59:10;17.90;99.90
4615;DHT22;2320;51.362;6.946;2022-07-22T08:01:36;18.00;99.90
4615;DHT22;2320;51.362;6.946;2022-07-22T08:04:02;18.00;99.90
4615;DHT22;2320;51.362;6.946;2022-07-22T08:06:27;18.20;99.90
4615;DHT22;2320;51.362;6.946;2022-07-22T08:08:53;18.20;99.90
4615;DHT22;2320;51.362;6.946;2022-07-22T08:11:18;18.10;99.90
4615;DHT22;2320;51.362;6.946;2022-07-22T08:13:44;18.20;99.90
4615;DHT22;2320;51.362;6.946;2022-07-22T08:16:09;18.40;99.90
4615;DHT22;2320;51.362;6.946;2022-07-22T08:18:35;18.50;99.90
4615;DHT22;2320;51.362;6.946;2022-07-22T08:21:00;18.70;99.90
4615;DHT22;2320;51.362;6.946;2022-07-22T08:23:26;18.70;99.90
4615;DHT22;2320;51.362;6.946;2022-07-22T08:25:51;18.50;99.90
4615;DHT22;2320;51.362;6.946;2022-07-22T08:28:17;18.50;99.90
4615;DHT22;2320;51.362;6.946;2022-07-22T08:30:42;18.20;99.90
4615;DHT22;2320;51.362;6.946;2022-07-22T08:33:08;18.20;99.90
4615;DHT22;2320;51.362;6.946;2022-07-22T08:35:34;18.40;99.90
4615;DHT22;2320;51.362;6.946;2022-07-22T08:38:00;18.60;99.90
4615;DHT22;2320;51.362;6.946;2022-07-22T08:40:25;18.50;99.90
4615;DHT22;2320;51.362;6.946;2022-07-22T08:42:51;18.70;99.90
4615;DHT22;2320;51.362;6.946;2022-07-22T08:45:16;18.70;99.90
4615;DHT22;2320;51.362;6.946;2022-07-22T08:47:45;19.00;99.90
4615;DHT22;2320;51.362;6.946;2022-07-22T08:50:11;19.10;99.90
4615;DHT22;2320;51.362;6.946;2022-07-22T08:52:37;19.40;99.90
4615;DHT22;2320;51.362;6.946;2022-07-22T08:55:03;19.30;99.90
4615;DHT22;2320;51.362;6.946;2022-07-22T08:57:29;19.20;99.90
4615;DHT22;2320;51.362;6.946;2022-07-22T08:59:56;19.40;99.90
4615;DHT22;2320;51.362;6.946;2022-07-22T09:02:22;19.10;99.90
4615;DHT22;2320;51.362;6.946;2022-07-22T09:04:55;19.10;99.90
4615;DHT22;2320;51.362;6.946;2022-07-22T09:07:24;19.40;99.90
4615;DHT22;2320;51.362;6.946;2022-07-22T09:09:50;19.10;99.90
4615;DHT22;2320;51.362;6.946;2022-07-22T09:12:16;19.00;99.90
4615;DHT22;2320;51.362;6.946;2022-07-22T09:14:45;19.20;99.90
4615;DHT22;2320;51.362;6.946;2022-07-22T09:17:30;18.80;99.90
4615;DHT22;2320;51.362;6.946;2022-07-22T09:19:57;19.10;99.90
4615;DHT22;2320;51.362;6.946;2022-07-22T09:22:30;19.10;99.90
4615;DHT22;2320;51.362;6.946;2022-07-22T09:24:55;19.00;99.90
4615;DHT22;2320;51.362;6.946;2022-07-22T09:27:24;19.10;99.90
4615;DHT22;2320;51.362;6.946;2022-07-22T09:29:50;19.30;99.90
4615;DHT22;2320;51.362;6.946;2022-07-22T09:32:16;19.00;99.90
4615;DHT22;2320;51.362;6.946;2022-07-22T09:34:41;19.00;99.90
4615;DHT22;2320;51.362;6.946;2022-07-22T09:37:07;19.60;99.90
4615;DHT22;2320;51.362;6.946;2022-07-22T09:39:32;19.90;99.90
4615;DHT22;2320;51.362;6.946;2022-07-22T09:42:03;19.90;99.90
4615;DHT22;2320;51.362;6.946;2022-07-22T09:44:28;20.10;99.90
4615;DHT22;2320;51.362;6.946;2022-07-22T09:46:54;20.30;99.90
4615;DHT22;2320;51.362;6.946;2022-07-22T09:49:32;20.30;99.90
4615;DHT22;2320;51.362;6.946;2022-07-22T09:51:58;20.30;99.90
4615;DHT22;2320;51.362;6.946;2022-07-22T09:54:25;20.30;99.90
4615;DHT22;2320;51.362;6.946;2022-07-22T09:56:50;20.70;99.90
4615;DHT22;2320;51.362;6.946;2022-07-22T09:59:16;20.70;99.90
4615;DHT22;2320;51.362;6.946;2022-07-22T10:01:41;20.80;99.90
4615;DHT22;2320;51.362;6.946;2022-07-22T10:04:07;20.80;99.90
4615;DHT22;2320;51.362;6.946;2022-07-22T10:06:34;21.00;99.90
4615;DHT22;2320;51.362;6.946;2022-07-22T10:09:02;21.20;99.90
4615;DHT22;2320;51.362;6.946;2022-07-22T10:11:28;21.30;99.90
4615;DHT22;2320;51.362;6.946;2022-07-22T10:13:53;20.90;99.90
4615;DHT22;2320;51.362;6.946;2022-07-22T10:16:19;20.70;99.90
4615;DHT22;2320;51.362;6.946;2022-07-22T10:18:45;20.40;99.90
4615;DHT22;2320;51.362;6.946;2022-07-22T10:21:11;20.10;99.90
4615;DHT22;2320;51.362;6.946;2022-07-22T10:24:06;20.20;99.90
4615;DHT22;2320;51.362;6.946;2022-07-22T10:26:22;19.90;99.90
4615;DHT22;2320;51.362;6.946;2022-07-22T10:32:11;20.10;99.90
4615;DHT22;2320;51.362;6.946;2022-07-22T10:34:40;20.00;99.90
4615;DHT22;2320;51.362;6.946;2022-07-22T10:40:24;20.90;99.90
4615;DHT22;2320;51.362;6.946;2022-07-22T10:45:27;21.40;99.90
4615;DHT22;2320;51.362;6.946;2022-07-22T10:55:59;21.70;99.90
4615;DHT22;2320;51.362;6.946;2022-07-22T11:01:00;22.50;99.90
4615;DHT22;2320;51.362;6.946;2022-07-22T11:03:28;23.10;99.90
4615;DHT22;2320;51.362;6.946;2022-07-22T11:05:54;23.10;99.90
4615;DHT22;2320;51.362;6.946;2022-07-22T11:08:21;23.00;99.90
4615;DHT22;2320;51.362;6.946;2022-07-22T11:10:50;23.10;99.90
4615;DHT22;2320;51.362;6.946;2022-07-22T11:13:34;23.70;99.90
4615;DHT22;2320;51.362;6.946;2022-07-22T11:19:05;24.60;99.90
4615;DHT22;2320;51.362;6.946;2022-07-22T11:21:30;24.10;99.90
4615;DHT22;2320;51.362;6.946;2022-07-22T11:23:57;24.40;99.90
4615;DHT22;2320;51.362;6.946;2022-07-22T11:26:24;24.20;99.90
4615;DHT22;2320;51.362;6.946;2022-07-22T11:28:50;23.60;99.90
4615;DHT22;2320;51.362;6.946;2022-07-22T11:31:16;22.60;99.90
4615;DHT22;2320;51.362;6.946;2022-07-22T11:33:43;23.40;99.90
4615;DHT22;2320;51.362;6.946;2022-07-22T11:36:08;23.10;99.90
4615;DHT22;2320;51.362;6.946;2022-07-22T11:38:44;22.90;99.90
4615;DHT22;2320;51.362;6.946;2022-07-22T11:41:10;22.50;99.90
4615;DHT22;2320;51.362;6.946;2022-07-22T11:43:44;22.90;99.90
4615;DHT22;2320;51.362;6.946;2022-07-22T11:46:10;23.80;99.90
4615;DHT22;2320;51.362;6.946;2022-07-22T11:48:35;23.90;99.90
4615;DHT22;2320;51.362;6.946;2022-07-22T11:51:03;24.30;99.90
4615;DHT22;2320;51.362;6.946;2022-07-22T11:53:29;23.80;99.90
4615;DHT22;2320;51.362;6.946;2022-07-22T11:56:00;23.30;99.90
4615;DHT22;2320;51.362;6.946;2022-07-22T12:01:04;24.50;99.90
4615;DHT22;2320;51.362;6.946;2022-07-22T12:03:31;23.60;99.90
4615;DHT22;2320;51.362;6.946;2022-07-22T12:05:57;22.70;99.90
4615;DHT22;2320;51.362;6.946;2022-07-22T12:08:23;22.50;99.90
4615;DHT22;2320;51.362;6.946;2022-07-22T12:10:49;23.20;99.90
4615;DHT22;2320;51.362;6.946;2022-07-22T12:13:14;23.60;99.90
4615;DHT22;2320;51.362;6.946;2022-07-22T12:15:40;23.20;99.90
4615;DHT22;2320;51.362;6.946;2022-07-22T12:18:18;23.60;99.90
4615;DHT22;2320;51.362;6.946;2022-07-22T12:20:48;23.00;99.90
4615;DHT22;2320;51.362;6.946;2022-07-22T12:23:14;23.00;99.90
4615;DHT22;2320;51.362;6.946;2022-07-22T12:25:52;23.50;99.90
4615;DHT22;2320;51.362;6.946;2022-07-22T12:28:18;23.00;99.90
4615;DHT22;2320;51.362;6.946;2022-07-22T12:30:43;23.30;99.90
4615;DHT22;2320;51.362;6.946;2022-07-22T12:33:17;22.70;99.90
4615;DHT22;2320;51.362;6.946;2022-07-22T12:35:43;23.20;99.90
4615;DHT22;2320;51.362;6.946;2022-07-22T12:38:09;23.60;99.90
4615;DHT22;2320;51.362;6.946;2022-07-22T12:40:34;23.90;99.90
4615;DHT22;2320;51.362;6.946;2022-07-22T12:43:01;23.60;99.90
4615;DHT22;2320;51.362;6.946;2022-07-22T12:45:28;23.40;99.90
4615;DHT22;2320;51.362;6.946;2022-07-22T12:48:00;23.10;99.90
4615;DHT22;2320;51.362;6.946;2022-07-22T12:50:31;23.00;99.90
4615;DHT22;2320;51.362;6.946;2022-07-22T12:52:58;22.90;99.90
4615;DHT22;2320;51.362;6.946;2022-07-22T12:55:24;23.10;99.90
4615;DHT22;2320;51.362;6.946;2022-07-22T12:57:49;23.40;99.90
4615;DHT22;2320;51.362;6.946;2022-07-22T13:00:19;23.50;99.90
4615;DHT22;2320;51.362;6.946;2022-07-22T13:02:45;23.20;99.90
4615;DHT22;2320;51.362;6.946;2022-07-22T13:05:11;23.00;99.90
4615;DHT22;2320;51.362;6.946;2022-07-22T13:07:36;23.30;99.90
4615;DHT22;2320;51.362;6.946;2022-07-22T13:10:02;23.80;99.90
4615;DHT22;2320;51.362;6.946;2022-07-22T13:12:27;24.20;99.90
4615;DHT22;2320;51.362;6.946;2022-07-22T13:14:53;24.00;99.90
4615;DHT22;2320;51.362;6.946;2022-07-22T13:17:18;24.30;99.90
4615;DHT22;2320;51.362;6.946;2022-07-22T13:19:45;24.80;99.90
4615;DHT22;2320;51.362;6.946;2022-07-22T13:22:10;24.70;99.90
4615;DHT22;2320;51.362;6.946;2022-07-22T13:24:36;24.80;99.90
4615;DHT22;2320;51.362;6.946;2022-07-22T13:27:02;25.00;99.90
4615;DHT22;2320;51.362;6.946;2022-07-22T13:29:27;25.50;99.90
4615;DHT22;2320;51.362;6.946;2022-07-22T13:31:53;25.90;99.90
4615;DHT22;2320;51.362;6.946;2022-07-22T13:34:18;26.10;99.90
4615;DHT22;2320;51.362;6.946;2022-07-22T13:36:44;24.20;99.90
4615;DHT22;2320;51.362;6.946;2022-07-22T13:39:09;23.90;99.90
4615;DHT22;2320;51.362;6.946;2022-07-22T13:41:35;23.70;99.90
4615;DHT22;2320;51.362;6.946;2022-07-22T13:44:00;22.70;99.90
4615;DHT22;2320;51.362;6.946;2022-07-22T13:46:26;23.20;99.90
4615;DHT22;2320;51.362;6.946;2022-07-22T13:48:51;23.70;99.90
4615;DHT22;2320;51.362;6.946;2022-07-22T13:51:18;24.30;99.90
4615;DHT22;2320;51.362;6.946;2022-07-22T13:53:43;24.20;99.90
4615;DHT22;2320;51.362;6.946;2022-07-22T13:56:09;23.80;99.90
4615;DHT22;2320;51.362;6.946;2022-07-22T13:58:37;23.90;99.90
4615;DHT22;2320;51.362;6.946;2022-07-22T14:01:02;23.40;99.90
4615;DHT22;2320;51.362;6.946;2022-07-22T14:03:28;23.30;99.90
4615;DHT22;2320;51.362;6.946;2022-07-22T14:05:54;23.30;99.90
4615;DHT22;2320;51.362;6.946;2022-07-22T14:08:20;23.30;99.90
4615;DHT22;2320;51.362;6.946;2022-07-22T14:10:45;23.50;99.90
4615;DHT22;2320;51.362;6.946;2022-07-22T14:13:11;23.90;99.90
4615;DHT22;2320;51.362;6.946;2022-07-22T14:15:37;24.00;99.90
4615;DHT22;2320;51.362;6.946;2022-07-22T14:18:02;23.70;99.90
4615;DHT22;2320;51.362;6.946;2022-07-22T14:20:30;23.70;99.90
4615;DHT22;2320;51.362;6.946;2022-07-22T14:22:55;23.60;99.90
4615;DHT22;2320;51.362;6.946;2022-07-22T14:25:21;23.60;99.90
4615;DHT22;2320;51.362;6.946;2022-07-22T14:27:48;23.80;99.90
4615;DHT22;2320;51.362;6.946;2022-07-22T14:30:13;23.90;99.90
4615;DHT22;2320;51.362;6.946;2022-07-22T14:32:39;24.10;99.90
4615;DHT22;2320;51.362;6.946;2022-07-22T14:35:04;24.00;99.90
4615;DHT22;2320;51.362;6.946;2022-07-22T14:37:31;24.10;99.90
4615;DHT22;2320;51.362;6.946;2022-07-22T14:39:57;23.80;99.90
4615;DHT22;2320;51.362;6.946;2022-07-22T14:42:24;23.90;99.90
4615;DHT22;2320;51.362;6.946;2022-07-22T14:44:49;24.30;99.90
4615;DHT22;2320;51.362;6.946;2022-07-22T14:47:15;24.70;99.90
4615;DHT22;2320;51.362;6.946;2022-07-22T14:49:40;24.80;99.90
4615;DHT22;2320;51.362;6.946;2022-07-22T14:52:06;24.50;99.90
4615;DHT22;2320;51.362;6.946;2022-07-22T14:54:31;24.30;99.90
4615;DHT22;2320;51.362;6.946;2022-07-22T14:56:57;24.50;99.90
4615;DHT22;2320;51.362;6.946;2022-07-22T14:59:22;24.30;99.90
4615;DHT22;2320;51.362;6.946;2022-07-22T15:01:51;24.00;99.90
4615;DHT22;2320;51.362;6.946;2022-07-22T15:04:16;24.00;99.90
4615;DHT22;2320;51.362;6.946;2022-07-22T15:06:42;23.80;99.90
4615;DHT22;2320;51.362;6.946;2022-07-22T15:09:07;23.90;99.90
4615;DHT22;2320;51.362;6.946;2022-07-22T15:11:33;23.80;99.90
4615;DHT22;2320;51.362;6.946;2022-07-22T15:13:59;24.20;99.90
4615;DHT22;2320;51.362;6.946;2022-07-22T15:16:24;24.20;99.90
4615;DHT22;2320;51.362;6.946;2022-07-22T15:18:50;24.00;99.90
4615;DHT22;2320;51.362;6.946;2022-07-22T15:21:15;24.00;99.90
4615;DHT22;2320;51.362;6.946;2022-07-22T15:23:41;23.80;99.90
4615;DHT22;2320;51.362;6.946;2022-07-22T15:26:07;23.90;99.90
4615;DHT22;2320;51.362;6.946;2022-07-22T15:28:32;23.50;99.90
4615;DHT22;2320;51.362;6.946;2022-07-22T15:30:58;23.60;99.90
4615;DHT22;2320;51.362;6.946;2022-07-22T15:33:23;23.10;99.90
4615;DHT22;2320;51.362;6.946;2022-07-22T15:35:49;23.60;99.90
4615;DHT22;2320;51.362;6.946;2022-07-22T15:38:14;23.90;99.90
4615;DHT22;2320;51.362;6.946;2022-07-22T15:40:40;24.10;99.90
4615;DHT22;2320;51.362;6.946;2022-07-22T15:43:06;23.60;99.90
4615;DHT22;2320;51.362;6.946;2022-07-22T15:45:32;23.80;99.90
4615;DHT22;2320;51.362;6.946;2022-07-22T15:47:57;23.90;99.90
4615;DHT22;2320;51.362;6.946;2022-07-22T15:50:23;23.70;99.90
4615;DHT22;2320;51.362;6.946;2022-07-22T15:52:49;23.70;99.90
4615;DHT22;2320;51.362;6.946;2022-07-22T15:55:15;23.40;99.90
4615;DHT22;2320;51.362;6.946;2022-07-22T15:57:41;23.40;99.90
4615;DHT22;2320;51.362;6.946;2022-07-22T16:00:25;23.70;99.90
4615;DHT22;2320;51.362;6.946;2022-07-22T16:02:51;23.50;99.90
4615;DHT22;2320;51.362;6.946;2022-07-22T16:05:16;23.40;99.90
4615;DHT22;2320;51.362;6.946;2022-07-22T16:07:43;23.70;99.90
4615;DHT22;2320;51.362;6.946;2022-07-22T16:10:08;23.80;99.90
4615;DHT22;2320;51.362;6.946;2022-07-22T16:12:34;23.80;99.90
4615;DHT22;2320;51.362;6.946;2022-07-22T16:14:59;23.50;99.90
4615;DHT22;2320;51.362;6.946;2022-07-22T16:17:25;23.70;99.90
4615;DHT22;2320;51.362;6.946;2022-07-22T16:19:50;23.70;99.90